Time;durP1;ratioP1;P1;durP2;ratioP2;P2;SDS_P1;SDS_P2;PMS_P1;PMS_P2;Temp;Humidity;BMP_temperature;BMP_pressure;BME280_temperature;BME280_humidity;BME280_pressure;Samples;Min_cycle;Max_cycle;Signal;HPM_P1;HPM_P2
2021/12/09 00:01:01;;;;;;;2.22;0.45;;;19.30;51.20;;;;;;4971401;28;20126;-82
2021/12/09 00:03:31;;;;;;;0.57;0.20;;;19.30;51.20;;;;;;4971395;28;20042;-82
2021/12/09 00:05:58;;;;;;;1.65;0.40;;;19.30;51.30;;;;;;4971044;28;20074;-82
2021/12/09 00:08:26;;;;;;;2.45;0.40;;;19.30;51.20;;;;;;4971427;28;20047;-82
2021/12/09 00:10:53;;;;;;;0.90;0.40;;;19.30;51.20;;;;;;4971809;28;20422;-82
2021/12/09 00:13:18;;;;;;;1.55;0.50;;;19.30;51.20;;;;;;4970761;28;20043;-82
2021/12/09 00:15:44;;;;;;;1.35;0.38;;;19.30;51.20;;;;;;4971509;28;20054;-82
2021/12/09 00:18:10;;;;;;;1.67;0.30;;;19.30;51.30;;;;;;4970997;28;20043;-82
2021/12/09 00:20:35;;;;;;;1.48;0.73;;;19.30;51.20;;;;;;4970507;28;20150;-82
2021/12/09 00:23:01;;;;;;;1.50;0.40;;;19.30;51.20;;;;;;4971149;28;20522;-82
2021/12/09 00:25:27;;;;;;;0.47;0.30;;;19.30;51.20;;;;;;4969928;28;20046;-83
2021/12/09 00:27:52;;;;;;;0.90;0.40;;;21.00;52.10;;;;;;4971132;28;20070;-83
2021/12/09 00:30:20;;;;;;;0.77;0.30;;;19.30;51.90;;;;;;4970856;28;20043;-83
2021/12/09 00:32:46;;;;;;;0.95;0.30;;;19.30;51.90;;;;;;4970120;28;20121;-83
2021/12/09 00:35:16;;;;;;;1.20;0.40;;;20.30;51.70;;;;;;4970568;28;20054;-83
2021/12/09 00:37:53;;;;;;;0.98;0.30;;;19.30;51.20;;;;;;4970815;28;20137;-83
2021/12/09 00:40:18;;;;;;;0.85;0.30;;;20.10;51.60;;;;;;4970204;28;20101;-82
2021/12/09 00:42:44;;;;;;;1.52;0.40;;;20.60;51.90;;;;;;4970320;28;20050;-83
2021/12/09 00:45:09;;;;;;;2.08;0.40;;;19.20;51.20;;;;;;4970668;28;20057;-83
2021/12/09 00:47:35;;;;;;;1.10;0.50;;;19.30;51.20;;;;;;4970115;28;20043;-83
2021/12/09 00:50:00;;;;;;;0.82;0.40;;;19.30;51.20;;;;;;4970462;28;20466;-83
2021/12/09 00:52:27;;;;;;;1.38;0.40;;;19.30;51.20;;;;;;4970711;28;20089;-83
2021/12/09 00:54:54;;;;;;;2.00;0.30;;;19.30;51.20;;;;;;4969647;28;20055;-83
2021/12/09 00:57:20;;;;;;;1.55;0.40;;;19.30;51.20;;;;;;4970554;28;20600;-83
2021/12/09 00:59:45;;;;;;;1.10;0.38;;;19.30;51.20;;;;;;4970279;28;20042;-83
2021/12/09 01:02:12;;;;;;;1.25;0.40;;;19.30;51.20;;;;;;4969531;28;20458;-81
2021/12/09 01:04:38;;;;;;;0.80;0.38;;;19.30;51.20;;;;;;4970047;28;20091;-83
2021/12/09 01:07:05;;;;;;;1.40;0.40;;;19.30;51.20;;;;;;4970120;28;20050;-83
2021/12/09 01:09:30;;;;;;;1.33;0.40;;;19.30;51.20;;;;;;4969670;28;20055;-83
2021/12/09 01:11:56;;;;;;;0.85;0.30;;;19.30;51.20;;;;;;4970119;28;20057;-82
2021/12/09 01:14:21;;;;;;;0.77;0.25;;;19.30;51.20;;;;;;4969905;28;20498;-82
2021/12/09 01:16:47;;;;;;;1.50;0.40;;;19.30;51.20;;;;;;4969280;28;20196;-82
2021/12/09 01:19:12;;;;;;;1.17;0.30;;;19.30;51.20;;;;;;4969816;28;20063;-82
2021/12/09 01:21:38;;;;;;;0.70;0.20;;;19.30;51.20;;;;;;4947604;28;20055;-82
2021/12/09 01:24:04;;;;;;;0.65;0.20;;;19.80;51.40;;;;;;4969241;28;20063;-82
2021/12/09 01:26:30;;;;;;;0.80;0.30;;;19.40;51.30;;;;;;4970005;28;20134;-82
2021/12/09 01:29:01;;;;;;;1.23;0.40;;;19.30;51.20;;;;;;4969097;28;20054;-82
2021/12/09 01:31:31;;;;;;;1.98;0.60;;;19.30;51.20;;;;;;4969974;28;20058;-82
2021/12/09 01:34:01;;;;;;;2.50;0.45;;;20.20;51.70;;;;;;4969970;28;20046;-82
2021/12/09 01:36:27;;;;;;;1.15;0.40;;;19.30;51.20;;;;;;4968776;28;20061;-82
2021/12/09 01:38:53;;;;;;;2.05;0.32;;;19.30;51.20;;;;;;4970062;28;20050;-81
2021/12/09 01:41:18;;;;;;;1.02;0.40;;;19.30;51.20;;;;;;4969553;28;20570;-82
2021/12/09 01:43:44;;;;;;;1.63;0.30;;;19.70;51.40;;;;;;4967418;28;20137;-82
2021/12/09 01:46:12;;;;;;;1.50;0.50;;;19.30;51.20;;;;;;4969400;28;20051;-82
2021/12/09 01:48:38;;;;;;;0.98;0.40;;;19.30;51.20;;;;;;4968064;28;20062;-82
2021/12/09 01:51:04;;;;;;;1.85;0.70;;;19.30;51.20;;;;;;4968958;28;20039;-81
2021/12/09 01:53:29;;;;;;;1.45;0.40;;;19.30;51.20;;;;;;4969754;28;20058;-81
2021/12/09 01:55:58;;;;;;;1.83;0.50;;;19.20;51.10;;;;;;4966573;28;20046;-82
2021/12/09 01:58:23;;;;;;;1.25;0.40;;;19.30;51.20;;;;;;4969026;28;20039;-81
2021/12/09 02:00:49;;;;;;;0.70;0.30;;;20.50;51.80;;;;;;4969864;28;20065;-81
2021/12/09 02:03:15;;;;;;;0.85;0.30;;;19.30;51.20;;;;;;4969598;28;20042;-82
2021/12/09 02:05:41;;;;;;;1.27;0.40;;;19.40;51.30;;;;;;4969034;28;20105;-82
2021/12/09 02:08:12;;;;;;;1.45;0.52;;;19.30;51.20;;;;;;4969252;28;20425;-82
2021/12/09 02:10:37;;;;;;;1.65;0.40;;;19.30;51.20;;;;;;4985494;28;20565;-82
2021/12/09 02:13:03;;;;;;;1.95;0.40;;;19.30;51.20;;;;;;4969056;28;20047;-82
2021/12/09 02:15:28;;;;;;;0.88;0.32;;;19.30;51.20;;;;;;4969377;28;20606;-82
2021/12/09 02:17:55;;;;;;;0.73;0.40;;;19.30;51.20;;;;;;4969230;28;20054;-82
2021/12/09 02:20:25;;;;;;;1.23;0.40;;;19.30;51.30;;;;;;4968719;28;20057;-82
2021/12/09 02:22:51;;;;;;;0.80;0.40;;;19.90;51.50;;;;;;4985347;28;20722;-82
2021/12/09 02:25:17;;;;;;;1.05;0.40;;;19.30;51.20;;;;;;4968713;28;20050;-82
2021/12/09 02:27:43;;;;;;;1.25;0.30;;;20.40;51.80;;;;;;4969308;28;20074;-82
2021/12/09 02:30:08;;;;;;;1.67;0.50;;;19.30;51.20;;;;;;4968959;28;20077;-82
2021/12/09 02:32:34;;;;;;;1.85;0.50;;;19.30;51.20;;;;;;4968838;28;20051;-82
2021/12/09 02:34:59;;;;;;;0.90;0.40;;;19.30;51.20;;;;;;4968934;28;20826;-83
2021/12/09 02:37:25;;;;;;;1.45;0.35;;;19.30;51.20;;;;;;4969022;28;20082;-83
2021/12/09 02:39:50;;;;;;;2.03;0.50;;;19.30;51.20;;;;;;4968667;28;20055;-82
2021/12/09 02:42:16;;;;;;;1.65;0.43;;;19.30;51.20;;;;;;4962473;28;20063;-82
2021/12/09 02:44:42;;;;;;;1.45;0.50;;;19.30;51.20;;;;;;4969481;28;20054;-82
2021/12/09 02:47:08;;;;;;;1.25;0.40;;;19.40;51.20;;;;;;4968638;28;20430;-82
2021/12/09 02:49:34;;;;;;;1.13;0.47;;;19.40;51.20;;;;;;4972159;28;20054;-82
2021/12/09 02:52:00;;;;;;;0.88;0.35;;;19.30;51.20;;;;;;4972760;28;20056;-82
2021/12/09 02:54:26;;;;;;;1.15;0.38;;;19.40;51.20;;;;;;4972206;28;20085;-82
2021/12/09 02:56:58;;;;;;;0.60;0.20;;;19.30;51.20;;;;;;4972775;28;20050;-82
2021/12/09 02:59:23;;;;;;;1.20;0.40;;;19.40;51.20;;;;;;4972654;28;20127;-82
2021/12/09 03:01:59;;;;;;;1.05;0.40;;;19.30;51.20;;;;;;4971791;28;20042;-82
2021/12/09 03:04:43;;;;;;;1.33;0.50;;;19.40;51.20;;;;;;4972546;28;20105;-82
2021/12/09 03:07:16;;;;;;;1.00;0.40;;;19.40;51.20;;;;;;4972266;28;20082;-82
2021/12/09 03:09:50;;;;;;;1.90;0.73;;;19.40;51.20;;;;;;4972771;28;20047;-82
2021/12/09 03:12:20;;;;;;;0.85;0.40;;;19.40;51.20;;;;;;4971608;28;20059;-82
2021/12/09 03:14:45;;;;;;;1.30;0.40;;;19.30;51.20;;;;;;4971018;28;20141;-82
2021/12/09 03:17:11;;;;;;;0.98;0.40;;;19.40;51.20;;;;;;4972351;28;20138;-82
2021/12/09 03:19:37;;;;;;;1.70;0.52;;;19.40;51.20;;;;;;4962414;28;20055;-82
2021/12/09 03:22:02;;;;;;;0.80;0.32;;;19.30;51.20;;;;;;4971698;28;20042;-83
2021/12/09 03:24:28;;;;;;;1.08;0.43;;;19.40;51.20;;;;;;4962355;28;20063;-83
2021/12/09 03:26:56;;;;;;;1.27;0.43;;;19.30;51.20;;;;;;4950846;28;20050;-83
2021/12/09 03:29:22;;;;;;;1.45;0.55;;;19.30;51.20;;;;;;4971171;28;20051;-83
2021/12/09 03:31:49;;;;;;;0.75;0.30;;;19.40;51.20;;;;;;4972266;28;20057;-82
2021/12/09 03:34:15;;;;;;;2.10;0.43;;;19.40;51.20;;;;;;4971910;28;20050;-82
2021/12/09 03:36:41;;;;;;;1.10;0.40;;;19.30;51.20;;;;;;4971343;28;20422;-82
2021/12/09 03:39:13;;;;;;;1.05;0.50;;;19.40;51.20;;;;;;4971608;28;20667;-82
2021/12/09 03:41:38;;;;;;;2.25;0.45;;;19.40;51.20;;;;;;4965100;28;20516;-83
2021/12/09 03:44:04;;;;;;;1.45;0.50;;;19.40;51.20;;;;;;4971351;28;20162;-82
2021/12/09 03:46:30;;;;;;;1.48;0.43;;;19.40;51.20;;;;;;4971886;28;20073;-82
2021/12/09 03:48:55;;;;;;;1.15;0.35;;;19.40;51.20;;;;;;4971609;28;20047;-83
2021/12/09 03:51:21;;;;;;;1.67;0.50;;;19.40;51.50;;;;;;4971243;28;20190;-83
2021/12/09 03:53:46;;;;;;;0.77;0.20;;;19.40;51.20;;;;;;4964878;28;20050;-83
2021/12/09 03:56:12;;;;;;;1.40;0.40;;;19.40;51.20;;;;;;4971526;28;20200;-83
2021/12/09 03:58:37;;;;;;;0.93;0.40;;;19.40;51.20;;;;;;4971075;28;20046;-82
2021/12/09 04:01:03;;;;;;;0.95;0.40;;;19.40;51.20;;;;;;4970234;28;20646;-83
2021/12/09 04:03:29;;;;;;;1.25;0.40;;;19.30;51.10;;;;;;4971006;28;20450;-83
2021/12/09 04:05:54;;;;;;;1.08;0.40;;;19.40;51.10;;;;;;4971366;28;20054;-82
2021/12/09 04:08:21;;;;;;;1.73;0.40;;;19.40;51.10;;;;;;4971323;28;20043;-82
2021/12/09 04:10:46;;;;;;;1.05;0.30;;;19.40;51.10;;;;;;4970598;28;20409;-82
2021/12/09 04:13:12;;;;;;;1.23;0.40;;;19.40;51.10;;;;;;4971230;28;20046;-83
2021/12/09 04:15:38;;;;;;;1.00;0.40;;;19.40;51.10;;;;;;4970900;28;20463;-83
2021/12/09 04:18:03;;;;;;;1.00;0.30;;;19.40;51.10;;;;;;4944355;28;20419;-83
2021/12/09 04:20:29;;;;;;;2.13;0.50;;;19.40;51.10;;;;;;4932402;29;20052;-83
2021/12/09 04:22:54;;;;;;;1.17;0.77;;;19.40;51.10;;;;;;4948560;29;20048;-83
2021/12/09 04:25:21;;;;;;;2.03;0.47;;;19.40;51.10;;;;;;4932323;29;20085;-83
2021/12/09 04:27:47;;;;;;;1.50;0.50;;;19.40;51.10;;;;;;4932821;29;20055;-83
2021/12/09 04:30:15;;;;;;;1.83;0.43;;;19.40;51.10;;;;;;4932670;29;20472;-83
2021/12/09 04:32:41;;;;;;;1.30;0.40;;;19.40;51.10;;;;;;4931744;29;20503;-82
2021/12/09 04:35:07;;;;;;;1.20;0.55;;;19.30;51.10;;;;;;4932391;29;20051;-83
2021/12/09 04:37:32;;;;;;;1.38;0.30;;;19.40;51.10;;;;;;4948497;29;20052;-83
2021/12/09 04:39:59;;;;;;;2.30;0.50;;;19.30;51.80;;;;;;4931584;29;20047;-82
2021/12/09 04:42:25;;;;;;;1.45;0.40;;;19.40;51.10;;;;;;4959695;28;20065;-83
2021/12/09 04:44:50;;;;;;;1.30;0.40;;;19.40;51.10;;;;;;4970813;28;20042;-83
2021/12/09 04:47:16;;;;;;;0.95;0.40;;;19.40;51.10;;;;;;4969086;28;20502;-83
2021/12/09 04:49:42;;;;;;;1.08;0.40;;;19.40;51.10;;;;;;4970369;28;20039;-82
2021/12/09 04:52:08;;;;;;;1.50;0.50;;;19.40;51.10;;;;;;4966756;28;20162;-82
2021/12/09 04:54:41;;;;;;;1.10;0.30;;;19.70;51.30;;;;;;4950665;28;20515;-81
2021/12/09 04:57:08;;;;;;;1.75;0.60;;;19.40;51.20;;;;;;4950991;28;20055;-82
2021/12/09 04:59:33;;;;;;;1.83;0.40;;;19.40;51.10;;;;;;4964261;28;20194;-82
2021/12/09 05:01:59;;;;;;;0.85;0.30;;;19.40;51.10;;;;;;4969996;28;20154;-82
2021/12/09 05:04:24;;;;;;;1.40;0.40;;;19.40;51.10;;;;;;4969039;28;20415;-82
2021/12/09 05:06:50;;;;;;;1.33;0.43;;;19.40;51.20;;;;;;4969277;28;20050;-83
2021/12/09 05:09:18;;;;;;;1.10;0.50;;;19.40;51.10;;;;;;4960283;28;20062;-83
2021/12/09 05:11:48;;;;;;;1.23;0.43;;;19.40;51.20;;;;;;4969917;28;20896;-83
2021/12/09 05:14:21;;;;;;;0.65;0.38;;;19.40;51.10;;;;;;4969495;28;20051;-83
2021/12/09 05:16:48;;;;;;;0.70;0.30;;;19.40;51.10;;;;;;4970476;28;20055;-83
2021/12/09 05:19:14;;;;;;;2.05;0.55;;;19.40;51.10;;;;;;4970466;28;20050;-83
2021/12/09 05:21:39;;;;;;;1.95;0.50;;;19.40;51.10;;;;;;4964112;28;20058;-83
2021/12/09 05:24:12;;;;;;;0.90;0.40;;;19.40;51.10;;;;;;4989729;28;20124;-83
2021/12/09 05:26:47;;;;;;;1.50;0.40;;;19.40;51.10;;;;;;4989258;28;20132;-82
2021/12/09 05:29:14;;;;;;;1.10;0.40;;;19.40;51.10;;;;;;4990251;28;20050;-83
2021/12/09 05:34:24;;;;;;;1.30;0.47;;;19.40;51.10;;;;;;4960373;28;20051;-83
2021/12/09 05:36:49;;;;;;;1.15;0.50;;;19.40;51.10;;;;;;4969067;28;20062;-83
2021/12/09 05:39:15;;;;;;;1.90;0.60;;;19.40;51.10;;;;;;4969515;28;20617;-83
2021/12/09 05:41:41;;;;;;;1.52;0.50;;;19.40;51.10;;;;;;4969776;28;20054;-83
2021/12/09 05:44:07;;;;;;;0.95;0.40;;;20.30;51.60;;;;;;4968879;28;20118;-83
2021/12/09 05:46:33;;;;;;;1.13;0.40;;;19.40;51.10;;;;;;4969414;28;20047;-83
2021/12/09 05:48:59;;;;;;;1.17;0.35;;;19.40;51.10;;;;;;4967988;28;20051;-84
2021/12/09 05:51:25;;;;;;;1.10;0.43;;;19.40;51.10;;;;;;4947181;28;20054;-84
2021/12/09 05:53:51;;;;;;;1.13;0.40;;;19.40;51.10;;;;;;4953513;28;20194;-84
2021/12/09 05:56:16;;;;;;;1.67;0.50;;;19.40;51.10;;;;;;4949615;29;20126;-84
2021/12/09 05:58:42;;;;;;;1.35;0.47;;;19.40;51.10;;;;;;4950061;29;20051;-83
2021/12/09 06:01:08;;;;;;;1.15;0.40;;;19.40;51.10;;;;;;4943549;28;20065;-82
2021/12/09 06:03:33;;;;;;;1.45;0.45;;;19.40;51.10;;;;;;4949065;29;20130;-82
2021/12/09 06:05:59;;;;;;;0.90;0.30;;;19.40;51.10;;;;;;4949864;28;20050;-83
2021/12/09 06:08:24;;;;;;;1.27;0.40;;;19.40;51.10;;;;;;4949974;28;20039;-83
2021/12/09 06:10:51;;;;;;;1.15;0.40;;;20.30;51.60;;;;;;4949684;28;20062;-83
2021/12/09 06:13:17;;;;;;;1.55;0.40;;;20.00;51.40;;;;;;4948081;28;20054;-82
2021/12/09 06:15:42;;;;;;;1.10;0.40;;;19.40;51.10;;;;;;4969166;28;20054;-82
2021/12/09 06:18:08;;;;;;;1.67;0.50;;;19.40;51.00;;;;;;4968481;28;20049;-82
2021/12/09 06:20:33;;;;;;;0.88;0.40;;;19.40;51.10;;;;;;4969297;28;20125;-83
2021/12/09 06:22:59;;;;;;;2.03;0.47;;;19.40;51.00;;;;;;4968152;28;20059;-83
2021/12/09 06:25:24;;;;;;;0.80;0.38;;;19.40;51.10;;;;;;4965751;28;20497;-84
2021/12/09 06:27:51;;;;;;;1.05;0.30;;;19.40;51.10;;;;;;4972974;28;20039;-84
2021/12/09 06:30:17;;;;;;;2.20;0.50;;;19.40;51.00;;;;;;4969568;28;20048;-83
2021/12/09 06:32:43;;;;;;;1.13;0.40;;;19.40;51.10;;;;;;4971723;28;20770;-83
2021/12/09 06:35:09;;;;;;;2.00;0.60;;;19.40;51.10;;;;;;4963927;28;20055;-84
2021/12/09 06:37:38;;;;;;;2.08;0.43;;;19.50;51.10;;;;;;4971193;28;20411;-82
2021/12/09 06:40:06;;;;;;;1.20;0.40;;;20.70;51.70;;;;;;4949391;28;20446;-82
2021/12/09 06:42:31;;;;;;;1.05;0.40;;;19.40;51.00;;;;;;4934664;29;20063;-82
2021/12/09 06:44:57;;;;;;;2.05;0.55;;;19.40;51.10;;;;;;4934415;29;20039;-83
2021/12/09 06:47:22;;;;;;;1.65;0.50;;;19.40;51.10;;;;;;4936769;29;20047;-83
2021/12/09 06:49:48;;;;;;;1.27;0.45;;;19.50;51.10;;;;;;4959690;28;20050;-83
2021/12/09 06:52:14;;;;;;;2.22;0.45;;;19.40;51.10;;;;;;4949753;28;20885;-83
2021/12/09 06:54:39;;;;;;;2.25;0.40;;;19.40;51.10;;;;;;4921342;28;20066;-83
2021/12/09 06:57:05;;;;;;;1.13;0.40;;;19.40;51.10;;;;;;4934549;29;20044;-83
2021/12/09 06:59:31;;;;;;;1.38;0.40;;;19.50;51.10;;;;;;4949735;29;20130;-83
2021/12/09 07:01:56;;;;;;;2.03;0.60;;;19.40;51.10;;;;;;4944279;29;20134;-83
2021/12/09 07:04:22;;;;;;;1.15;0.40;;;19.40;51.00;;;;;;4953009;28;20054;-83
2021/12/09 07:06:47;;;;;;;1.27;0.40;;;19.40;51.10;;;;;;4952030;28;20047;-83
2021/12/09 07:09:13;;;;;;;1.77;0.30;;;19.50;51.10;;;;;;4941492;28;20074;-84
2021/12/09 07:11:39;;;;;;;1.60;0.50;;;19.40;51.00;;;;;;4933997;29;20059;-83
2021/12/09 07:14:05;;;;;;;1.48;0.47;;;19.50;51.10;;;;;;4933473;29;20044;-83
2021/12/09 07:16:31;;;;;;;1.27;0.40;;;19.40;51.00;;;;;;4933892;29;20055;-78
2021/12/09 07:18:58;;;;;;;1.38;0.40;;;19.50;51.10;;;;;;4958965;28;20061;-82
2021/12/09 07:21:24;;;;;;;1.15;0.45;;;19.40;51.00;;;;;;4939651;29;20054;-80
2021/12/09 07:23:49;;;;;;;1.65;0.50;;;19.50;51.10;;;;;;4951884;28;20380;-82
2021/12/09 07:26:15;;;;;;;1.05;0.40;;;19.50;51.00;;;;;;4933731;29;20149;-82
2021/12/09 07:28:41;;;;;;;1.42;0.40;;;19.40;51.00;;;;;;4933174;29;20138;-82
2021/12/09 07:31:06;;;;;;;1.58;0.50;;;19.70;51.20;;;;;;4934734;29;20047;-82
2021/12/09 07:33:32;;;;;;;1.35;0.40;;;19.50;51.00;;;;;;4936667;29;20047;-82
2021/12/09 07:35:58;;;;;;;2.20;0.63;;;19.50;51.00;;;;;;4936862;28;20066;-82
2021/12/09 07:38:24;;;;;;;2.30;0.60;;;19.50;51.00;;;;;;4933189;29;20083;-81
2021/12/09 07:40:49;;;;;;;1.70;0.55;;;19.50;51.00;;;;;;4917515;29;20059;-81
2021/12/09 07:43:15;;;;;;;1.50;0.45;;;19.50;51.00;;;;;;4936558;29;20062;-81
2021/12/09 07:45:40;;;;;;;2.08;0.50;;;19.40;50.90;;;;;;4942390;29;20055;-80
2021/12/09 07:48:06;;;;;;;1.10;0.40;;;19.40;50.90;;;;;;4933327;29;20044;-81
2021/12/09 07:50:32;;;;;;;2.47;0.60;;;19.40;50.90;;;;;;4933306;29;20052;-80
2021/12/09 07:52:58;;;;;;;1.50;0.60;;;19.40;50.90;;;;;;4965018;28;20059;-81
2021/12/09 07:55:23;;;;;;;1.40;0.50;;;20.50;51.40;;;;;;4944420;29;20105;-81
2021/12/09 07:57:49;;;;;;;1.10;0.47;;;19.40;51.50;;;;;;4940349;28;20550;-80
2021/12/09 08:00:24;;;;;;;1.20;0.50;;;19.40;50.90;;;;;;4932676;29;20126;-82
2021/12/09 08:02:50;;;;;;;1.48;0.40;;;19.40;50.90;;;;;;4932355;29;20052;-82
2021/12/09 08:05:16;;;;;;;2.25;0.60;;;19.40;50.80;;;;;;4948840;28;20059;-81
2021/12/09 08:07:42;;;;;;;1.50;0.70;;;19.40;50.80;;;;;;4943565;28;20047;-80
2021/12/09 08:10:09;;;;;;;2.92;0.60;;;19.40;50.90;;;;;;4981547;28;20084;-80
2021/12/09 08:12:34;;;;;;;2.53;0.55;;;19.40;50.80;;;;;;4969321;28;20066;-81
2021/12/09 08:15:00;;;;;;;2.53;0.80;;;19.30;50.80;;;;;;4970939;28;20089;-82
2021/12/09 08:20:05;;;;;;;1.77;0.50;;;19.40;50.80;;;;;;4965216;28;20628;-80
2021/12/09 08:22:31;;;;;;;1.65;0.50;;;19.30;50.80;;;;;;4962631;28;20514;-82
2021/12/09 08:24:58;;;;;;;2.13;0.60;;;19.60;50.90;;;;;;4970902;28;20085;-82
2021/12/09 08:27:24;;;;;;;1.33;0.57;;;19.30;50.80;;;;;;4966873;28;20043;-83
2021/12/09 08:29:49;;;;;;;1.00;0.50;;;19.30;50.80;;;;;;4971180;28;20130;-83
2021/12/09 08:32:15;;;;;;;1.67;0.60;;;19.30;50.80;;;;;;4970297;28;20395;-83
2021/12/09 08:34:40;;;;;;;1.38;0.50;;;19.30;50.80;;;;;;4970638;28;20085;-82
2021/12/09 08:37:06;;;;;;;2.00;0.70;;;19.30;50.80;;;;;;4970488;28;20063;-81
2021/12/09 08:39:32;;;;;;;2.83;0.60;;;19.30;50.80;;;;;;4954093;28;20057;-82
2021/12/09 08:41:57;;;;;;;3.28;0.70;;;19.30;50.60;;;;;;4970897;28;20094;-82
2021/12/09 08:44:25;;;;;;;1.77;0.60;;;19.30;50.50;;;;;;4954399;28;20474;-81
2021/12/09 08:46:50;;;;;;;4.13;0.82;;;19.30;50.50;;;;;;4964995;28;20126;-82
2021/12/09 08:49:16;;;;;;;3.58;0.90;;;20.20;50.90;;;;;;4962573;28;20126;-81
2021/12/09 08:51:42;;;;;;;5.30;1.00;;;19.60;50.60;;;;;;4957901;28;20042;-82
2021/12/09 08:54:07;;;;;;;1.88;0.60;;;17.90;49.60;;;;;;4963896;28;20081;-81
2021/12/09 08:56:34;;;;;;;2.75;0.75;;;19.30;51.00;;;;;;4951949;28;20107;-82
2021/12/09 08:59:02;;;;;;;3.10;0.85;;;19.30;50.30;;;;;;4963297;28;20112;-82
2021/12/09 09:01:28;;;;;;;2.22;0.75;;;19.30;50.30;;;;;;4970125;28;20051;-81
2021/12/09 09:03:53;;;;;;;2.50;0.90;;;19.30;50.30;;;;;;4970126;28;20117;-81
2021/12/09 09:06:19;;;;;;;2.75;0.80;;;19.30;51.10;;;;;;4965876;28;20055;-80
2021/12/09 09:08:45;;;;;;;3.78;0.80;;;19.30;50.40;;;;;;4959547;28;20050;-80
2021/12/09 09:11:10;;;;;;;3.38;0.80;;;19.30;50.30;;;;;;4959740;28;20050;-81
2021/12/09 09:13:36;;;;;;;3.20;0.80;;;19.30;50.40;;;;;;4966539;28;20089;-81
2021/12/09 09:16:18;;;;;;;4.57;0.80;;;19.30;50.40;;;;;;4952112;28;20051;-82
2021/12/09 09:19:13;;;;;;;4.72;0.80;;;19.30;50.40;;;;;;4959860;28;20105;-81
2021/12/09 09:21:59;;;;;;;2.42;0.70;;;18.70;50.30;;;;;;4962426;28;20050;-84
2021/12/09 09:24:37;;;;;;;3.15;0.73;;;19.30;50.70;;;;;;4962978;28;20694;-84
2021/12/09 09:27:05;;;;;;;3.47;0.90;;;18.50;50.30;;;;;;4968565;28;20054;-83
2021/12/09 09:29:41;;;;;;;4.40;0.90;;;19.70;50.60;;;;;;4969719;28;20125;-83
2021/12/09 09:32:13;;;;;;;5.65;0.90;;;18.10;50.30;;;;;;4968541;28;20050;-82
2021/12/09 09:34:39;;;;;;;;;;;20.90;51.70;;;;;;4969054;28;20487;-84
2021/12/09 09:37:05;;;;;;;3.88;1.00;;;17.60;50.60;;;;;;4967512;28;19933;-84
2021/12/09 09:39:43;;;;;;;2.22;0.82;;;19.40;50.70;;;;;;4969305;28;20154;-83
2021/12/09 09:42:45;;;;;;;2.42;0.80;;;19.40;51.10;;;;;;4963301;28;20051;-83
2021/12/09 09:45:39;;;;;;;2.63;0.70;;;21.10;52.00;;;;;;4967964;28;20054;-83
2021/12/09 09:48:08;;;;;;;3.33;0.75;;;20.70;51.20;;;;;;4953119;28;20051;-84
2021/12/09 09:50:49;;;;;;;2.20;0.60;;;18.40;49.90;;;;;;4967910;28;20087;-83
2021/12/09 09:53:15;;;;;;;2.88;0.70;;;19.30;50.30;;;;;;4950485;28;20055;-83
2021/12/09 09:55:41;;;;;;;2.33;0.55;;;18.80;50.10;;;;;;4951906;28;20054;-84
2021/12/09 09:58:10;;;;;;;2.90;0.80;;;20.50;51.10;;;;;;4936342;28;20077;-83
2021/12/09 10:00:36;;;;;;;4.10;0.90;;;19.30;50.30;;;;;;4952695;28;20050;-84
2021/12/09 10:03:06;;;;;;;2.08;0.68;;;19.40;50.30;;;;;;4962658;28;20046;-84
2021/12/09 10:05:36;;;;;;;3.88;0.70;;;19.40;50.40;;;;;;4968320;28;20053;-84
2021/12/09 10:08:03;;;;;;;2.05;0.70;;;19.40;50.30;;;;;;4965524;28;20054;-84
2021/12/09 10:10:28;;;;;;;3.45;0.70;;;19.40;50.30;;;;;;4984133;28;20114;-76
2021/12/09 10:13:15;;;;;;;2.78;0.60;;;19.40;50.30;;;;;;4965260;28;20047;-84
2021/12/09 10:15:47;;;;;;;2.05;0.80;;;19.40;50.30;;;;;;4968521;28;20108;-83
2021/12/09 10:18:14;;;;;;;2.65;0.68;;;19.50;50.30;;;;;;4967691;28;20100;-83
2021/12/09 10:20:47;;;;;;;2.20;0.70;;;19.40;50.20;;;;;;4968277;28;20174;-83
2021/12/09 10:23:33;;;;;;;2.45;0.60;;;19.50;50.30;;;;;;4968299;28;20498;-82
2021/12/09 10:26:18;;;;;;;2.45;0.80;;;19.50;50.20;;;;;;4961265;28;20125;-77
2021/12/09 10:28:50;;;;;;;2.72;0.68;;;20.00;50.40;;;;;;4960654;28;20078;-77
2021/12/09 10:31:20;;;;;;;1.95;0.80;;;19.50;50.10;;;;;;4957220;28;20040;-78
2021/12/09 10:34:36;;;;;;;5.45;1.08;;;19.50;50.20;;;;;;4963524;28;20513;-78
2021/12/09 10:37:20;;;;;;;3.35;0.75;;;19.60;50.30;;;;;;4902294;29;20150;-80
2021/12/09 10:40:12;;;;;;;3.03;1.17;;;19.60;50.30;;;;;;4912438;29;20400;-79
2021/12/09 10:42:49;;;;;;;2.53;0.68;;;19.60;50.30;;;;;;4959018;28;20120;-77
2021/12/09 10:45:16;;;;;;;4.80;1.33;;;19.60;50.30;;;;;;4967708;28;20055;-80
2021/12/09 10:53:18;;;;;;;4.32;0.77;;;19.70;50.30;;;;;;4967205;28;20066;-79
2021/12/09 10:56:09;;;;;;;2.80;0.80;;;19.70;50.30;;;;;;4968215;28;20058;-79
2021/12/09 10:58:36;;;;;;;2.38;0.80;;;19.70;50.30;;;;;;4959321;28;20078;-78
2021/12/09 11:01:04;;;;;;;3.80;0.80;;;19.70;50.20;;;;;;4949215;29;20083;-78
2021/12/09 11:03:34;;;;;;;2.40;0.60;;;19.70;50.20;;;;;;4967508;28;20125;-78
2021/12/09 11:06:07;;;;;;;2.05;0.70;;;19.70;50.30;;;;;;4968880;28;20051;-79
2021/12/09 11:08:33;;;;;;;3.28;0.80;;;19.70;50.20;;;;;;4952782;28;20486;-78
2021/12/09 11:11:39;;;;;;;2.17;0.60;;;19.80;50.20;;;;;;4953953;28;20082;-79
2021/12/09 11:14:18;;;;;;;8.88;0.90;;;19.80;50.20;;;;;;4926952;28;20499;-81
2021/12/09 11:16:46;;;;;;;2.35;0.80;;;19.80;50.20;;;;;;4978185;28;20090;-79
2021/12/09 11:19:13;;;;;;;4.63;1.00;;;19.80;50.20;;;;;;4972288;28;20055;-79
2021/12/09 11:21:45;;;;;;;4.60;0.80;;;19.80;50.10;;;;;;4965156;28;20057;-80
2021/12/09 11:24:17;;;;;;;5.47;0.70;;;19.80;50.00;;;;;;4971976;28;20101;-79
2021/12/09 11:29:17;;;;;;;3.50;0.70;;;19.80;50.00;;;;;;4972254;28;20572;-79
2021/12/09 11:32:15;;;;;;;4.13;1.20;;;19.80;50.10;;;;;;4973394;28;20043;-80
2021/12/09 11:34:49;;;;;;;4.88;0.80;;;19.80;49.80;;;;;;4972371;28;20548;-80
2021/12/09 11:39:58;;;;;;;4.45;0.80;;;19.80;49.80;;;;;;4971849;28;20148;-79
2021/12/09 11:42:37;;;;;;;4.15;0.90;;;19.80;49.60;;;;;;4970727;28;20055;-79
2021/12/09 11:45:07;;;;;;;7.10;1.10;;;19.80;49.50;;;;;;4971356;28;20509;-79
2021/12/09 11:47:34;;;;;;;6.10;0.90;;;19.80;49.60;;;;;;4987640;28;20462;-79
2021/12/09 11:50:00;;;;;;;3.72;0.93;;;19.80;49.70;;;;;;4970973;28;20162;-79
2021/12/09 11:52:25;;;;;;;3.42;0.73;;;19.80;49.60;;;;;;4970624;28;20051;-80
2021/12/09 11:54:59;;;;;;;4.07;0.82;;;19.60;49.40;;;;;;4963815;28;20082;-80
2021/12/09 11:57:45;;;;;;;2.25;0.95;;;19.70;49.40;;;;;;4884963;28;20468;-80
2021/12/09 12:07:43;;;;;;;3.60;0.85;;;19.70;49.00;;;;;;4933819;29;20044;-80
2021/12/09 12:13:11;;;;;;;3.88;0.82;;;19.90;49.10;;;;;;4932491;29;20078;-80
2021/12/09 12:15:44;;;;;;;5.68;0.95;;;19.60;49.00;;;;;;4928877;29;20047;-80
2021/12/09 12:21:17;;;;;;;2.50;0.90;;;19.60;49.10;;;;;;4949218;28;20159;-81
2021/12/09 12:24:05;;;;;;;2.17;0.90;;;19.60;49.10;;;;;;4941703;28;20063;-79
2021/12/09 12:29:34;;;;;;;3.05;0.68;;;19.60;49.20;;;;;;4946070;28;20066;-79
2021/12/09 12:37:53;;;;;;;3.33;0.95;;;19.50;49.40;;;;;;4949874;28;20476;-79
2021/12/09 12:40:46;;;;;;;2.80;1.05;;;19.50;49.30;;;;;;4941111;28;20487;-79
2021/12/09 12:43:23;;;;;;;3.53;0.73;;;19.50;49.30;;;;;;4943913;28;20043;-79
2021/12/09 12:46:00;;;;;;;2.78;0.70;;;19.50;49.30;;;;;;4943319;29;20095;-79
2021/12/09 12:53:55;;;;;;;1.98;0.70;;;19.50;49.40;;;;;;4946591;29;20580;-79
2021/12/09 12:56:32;;;;;;;2.95;0.70;;;19.50;49.30;;;;;;4950597;29;20048;-79
2021/12/09 12:59:05;;;;;;;2.38;0.70;;;19.50;49.40;;;;;;4937911;28;20051;-79
2021/12/09 13:01:30;;;;;;;3.90;0.98;;;19.50;49.40;;;;;;4940782;29;20055;-80
2021/12/09 13:04:03;;;;;;;3.00;0.80;;;19.40;49.20;;;;;;4952333;29;20458;-79
2021/12/09 13:06:45;;;;;;;2.70;0.88;;;19.40;49.20;;;;;;4950070;29;20047;-79
2021/12/09 13:09:31;;;;;;;1.77;0.60;;;19.40;49.40;;;;;;4950934;28;20098;-79
2021/12/09 13:12:05;;;;;;;1.30;0.60;;;19.40;49.30;;;;;;4952453;28;20090;-79
2021/12/09 13:14:34;;;;;;;3.58;0.82;;;19.40;49.30;;;;;;4950922;29;20090;-79
2021/12/09 13:19:40;;;;;;;2.25;0.70;;;19.40;49.30;;;;;;4949993;29;20065;-80
2021/12/09 13:22:08;;;;;;;2.97;0.90;;;19.40;49.30;;;;;;4950492;29;20066;-79
2021/12/09 13:24:52;;;;;;;2.05;0.70;;;19.40;49.40;;;;;;4959143;28;20055;-84
2021/12/09 13:27:38;;;;;;;2.78;0.80;;;19.40;49.50;;;;;;4966585;28;20043;-81
2021/12/09 13:46:44;;;;;;;2.85;0.70;;;19.40;50.00;;;;;;4915354;29;20064;-81
2021/12/09 13:54:29;;;;;;;5.30;1.15;;;19.30;49.70;;;;;;4926870;28;20054;-80
2021/12/09 13:56:56;;;;;;;2.95;1.00;;;19.30;49.60;;;;;;4940054;28;20102;-81
2021/12/09 13:59:22;;;;;;;3.97;1.02;;;20.50;50.20;;;;;;4927693;28;20496;-80
2021/12/09 14:01:48;;;;;;;5.95;1.08;;;20.00;49.90;;;;;;4929847;29;20059;-80
2021/12/09 14:04:18;;;;;;;3.58;1.00;;;19.30;49.60;;;;;;4914742;29;20093;-80